createdAt,value
2024-03-10T00:00:38.178Z,6.80
2024-03-10T00:03:05.511Z,6.80
2024-03-10T00:05:32.738Z,6.80
2024-03-10T00:07:59.454Z,6.90
2024-03-10T00:10:26.354Z,7.00
2024-03-10T00:12:53.092Z,6.90
2024-03-10T00:15:21.186Z,6.90
2024-03-10T00:17:48.492Z,7.00
2024-03-10T00:20:15.422Z,6.80
2024-03-10T00:22:44.702Z,6.80
2024-03-10T00:25:12.886Z,6.80
2024-03-10T00:27:39.641Z,6.90
2024-03-10T00:30:08.513Z,6.90
2024-03-10T00:32:36.292Z,6.70
2024-03-10T00:35:06.477Z,6.90
2024-03-10T00:37:33.612Z,6.80
2024-03-10T00:40:00.357Z,6.70
2024-03-10T00:42:27.148Z,6.80
2024-03-10T00:44:53.822Z,6.70
2024-03-10T00:47:21.719Z,6.80
2024-03-10T00:49:48.575Z,6.80
2024-03-10T00:52:15.317Z,6.70
2024-03-10T00:54:42.028Z,6.70
2024-03-10T00:57:08.747Z,6.60
2024-03-10T00:59:35.703Z,6.70
2024-03-10T01:02:02.443Z,6.70
2024-03-10T01:04:29.573Z,6.70
2024-03-10T01:06:58.127Z,6.80
2024-03-10T01:09:25.147Z,6.70
2024-03-10T01:11:52.699Z,6.80
2024-03-10T01:14:19.715Z,6.80
2024-03-10T01:16:47.489Z,6.10
2024-03-10T01:19:14.740Z,6.70
2024-03-10T01:21:44.467Z,6.60
2024-03-10T01:24:11.100Z,6.60
2024-03-10T01:26:37.846Z,6.70
2024-03-10T01:29:05.279Z,6.60
2024-03-10T01:31:32.047Z,6.60
2024-03-10T01:33:58.703Z,6.60
2024-03-10T01:36:25.833Z,6.70
2024-03-10T01:38:52.510Z,6.70
2024-03-10T01:41:19.289Z,6.70
2024-03-10T01:43:48.815Z,6.60
2024-03-10T01:46:16.671Z,6.60
2024-03-10T01:48:45.211Z,6.60
2024-03-10T01:51:14.449Z,6.50
2024-03-10T01:53:42.587Z,6.70
2024-03-10T01:56:12.780Z,6.50
2024-03-10T01:58:41.443Z,6.50
2024-03-10T02:01:10.290Z,6.50
2024-03-10T02:03:39.990Z,6.50
2024-03-10T02:06:10.446Z,6.60
2024-03-10T02:08:38.769Z,6.60
2024-03-10T02:11:07.517Z,8.90
2024-03-10T02:13:34.623Z,6.50
2024-03-10T02:16:08.366Z,6.60
2024-03-10T02:18:35.321Z,6.60
2024-03-10T02:21:03.777Z,6.60
2024-03-10T02:23:39.423Z,6.70
2024-03-10T02:26:06.309Z,6.60
2024-03-10T02:28:37.173Z,6.50
2024-03-10T02:31:22.735Z,4.90
2024-03-10T02:34:11.055Z,6.40
2024-03-10T02:37:16.337Z,6.40
2024-03-10T02:40:01.745Z,6.40
2024-03-10T02:42:54.270Z,6.40
2024-03-10T02:45:39.806Z,6.40
2024-03-10T02:48:09.798Z,6.40
2024-03-10T02:50:39.592Z,6.40
2024-03-10T02:53:06.351Z,6.50
2024-03-10T02:55:34.173Z,6.40
2024-03-10T02:58:04.986Z,6.30
2024-03-10T03:00:32.691Z,6.20
2024-03-10T03:03:00.623Z,6.00
2024-03-10T03:05:30.232Z,6.10
2024-03-10T03:07:58.446Z,6.20
2024-03-10T03:10:25.694Z,6.20
2024-03-10T03:12:54.264Z,6.20
2024-03-10T03:15:21.301Z,6.30
2024-03-10T03:17:48.088Z,6.20
2024-03-10T03:20:17.818Z,6.20
2024-03-10T03:22:48.440Z,6.30
2024-03-10T03:25:19.021Z,6.30
2024-03-10T03:27:50.090Z,6.20
2024-03-10T03:30:23.759Z,6.20
2024-03-10T03:32:50.799Z,6.20
2024-03-10T03:35:18.116Z,6.20
2024-03-10T03:37:47.564Z,6.10
2024-03-10T03:40:15.028Z,6.10
2024-03-10T03:42:41.958Z,6.10
2024-03-10T03:45:09.894Z,8.50
2024-03-10T03:47:36.670Z,6.10
2024-03-10T03:50:03.966Z,6.10
2024-03-10T03:52:30.687Z,6.10
2024-03-10T03:54:58.421Z,6.10
2024-03-10T03:57:25.862Z,6.10
2024-03-10T03:59:52.638Z,6.10
2024-03-10T04:02:26.588Z,6.00
2024-03-10T04:04:54.522Z,6.00
2024-03-10T04:07:21.444Z,5.90
2024-03-10T04:09:48.460Z,6.00
2024-03-10T04:12:15.330Z,5.90
2024-03-10T04:14:42.230Z,5.90
2024-03-10T04:17:09.056Z,6.00
2024-03-10T04:19:36.301Z,6.10
2024-03-10T04:22:03.581Z,6.10
2024-03-10T04:24:31.056Z,6.00
2024-03-10T04:26:57.714Z,6.10
2024-03-10T04:29:24.794Z,6.00
2024-03-10T04:31:51.591Z,6.00
2024-03-10T04:34:18.279Z,6.00
2024-03-10T04:36:44.966Z,6.00
2024-03-10T04:39:11.765Z,6.00
2024-03-10T04:41:39.004Z,5.90
2024-03-10T04:44:06.298Z,5.90
2024-03-10T04:46:33.668Z,6.00
2024-03-10T04:49:00.633Z,6.00
2024-03-10T04:51:27.378Z,6.00
2024-03-10T04:53:54.095Z,5.90
2024-03-10T04:56:20.788Z,5.90
2024-03-10T04:58:47.890Z,5.90
2024-03-10T05:01:18.060Z,5.90
2024-03-10T05:03:44.745Z,5.90
2024-03-10T05:06:11.570Z,5.90
2024-03-10T05:08:38.456Z,6.00
2024-03-10T05:11:05.579Z,6.00
2024-03-10T05:13:36.918Z,5.90
2024-03-10T05:16:07.126Z,5.80
2024-03-10T05:18:34.402Z,5.80
2024-03-10T05:21:01.204Z,5.90
2024-03-10T05:23:28.828Z,5.90
2024-03-10T05:25:55.869Z,6.00
2024-03-10T05:28:22.768Z,6.00
2024-03-10T05:30:49.487Z,5.40
2024-03-10T05:33:16.301Z,6.00
2024-03-10T05:35:43.190Z,6.00
2024-03-10T05:38:09.941Z,5.90
2024-03-10T05:40:36.649Z,6.00
2024-03-10T05:43:03.832Z,5.90
2024-03-10T05:45:30.556Z,6.00
2024-03-10T05:47:58.367Z,6.00
2024-03-10T05:50:25.094Z,5.90
2024-03-10T05:52:51.876Z,6.60
2024-03-10T05:55:18.641Z,6.70
2024-03-10T05:57:46.217Z,6.90
2024-03-10T06:00:16.434Z,7.20
2024-03-10T06:02:46.024Z,7.30
2024-03-10T06:05:14.513Z,7.30
2024-03-10T06:07:44.677Z,7.30
2024-03-10T06:10:12.814Z,7.50
2024-03-10T06:12:43.733Z,7.60
2024-03-10T06:15:12.512Z,7.70
2024-03-10T06:17:42.243Z,7.70
2024-03-10T06:20:28.037Z,7.70
2024-03-10T06:23:13.544Z,7.70
2024-03-10T06:25:40.262Z,7.70
2024-03-10T06:28:07.152Z,7.70
2024-03-10T06:30:34.505Z,7.80
2024-03-10T06:33:01.369Z,7.70
2024-03-10T06:35:28.420Z,7.80
2024-03-10T06:37:57.165Z,7.70
2024-03-10T06:40:23.924Z,7.70
2024-03-10T06:42:50.648Z,7.70
2024-03-10T06:45:18.287Z,7.70
2024-03-10T06:47:45.183Z,7.70
2024-03-10T06:50:12.089Z,7.80
2024-03-10T06:52:39.321Z,7.90
2024-03-10T06:55:10.049Z,8.00
2024-03-10T06:57:39.543Z,9.60
2024-03-10T07:00:09.738Z,8.10
2024-03-10T07:02:37.422Z,8.20
2024-03-10T07:05:05.376Z,8.10
2024-03-10T07:07:32.076Z,8.10
2024-03-10T07:09:58.844Z,7.90
2024-03-10T07:12:25.543Z,7.90
2024-03-10T07:14:52.256Z,8.10
2024-03-10T07:17:18.954Z,8.10
2024-03-10T07:19:46.490Z,8.20
2024-03-10T07:22:13.292Z,8.20
2024-03-10T07:24:39.959Z,8.30
2024-03-10T07:27:07.022Z,8.30
2024-03-10T07:29:34.305Z,8.40
2024-03-10T07:32:01.534Z,8.50
2024-03-10T07:34:29.767Z,8.50
2024-03-10T07:36:56.610Z,8.50
2024-03-10T07:39:24.327Z,8.50
2024-03-10T07:41:51.191Z,8.50
2024-03-10T07:44:18.295Z,8.40
2024-03-10T07:46:45.324Z,8.50
2024-03-10T07:49:12.617Z,8.30
2024-03-10T07:51:39.449Z,8.10
2024-03-10T07:54:06.280Z,7.90
2024-03-10T07:56:33.710Z,7.80
2024-03-10T07:59:01.697Z,7.80
2024-03-10T08:01:28.829Z,7.80
2024-03-10T08:03:56.980Z,7.90
2024-03-10T08:06:23.932Z,7.90
2024-03-10T08:08:52.397Z,7.80
2024-03-10T08:11:19.928Z,7.80
2024-03-10T08:13:46.711Z,7.90
2024-03-10T08:16:14.878Z,8.00
2024-03-10T08:18:42.156Z,8.10
2024-03-10T08:21:09.059Z,8.10
2024-03-10T08:23:36.108Z,8.20
2024-03-10T08:26:02.964Z,8.30
2024-03-10T08:28:29.886Z,8.40
2024-03-10T08:30:58.423Z,8.40
2024-03-10T08:33:25.319Z,8.40
2024-03-10T08:35:52.198Z,8.40
2024-03-10T08:38:19.366Z,8.40
2024-03-10T08:40:46.224Z,8.40
2024-03-10T08:43:14.255Z,8.50
2024-03-10T08:45:41.067Z,8.40
2024-03-10T08:48:10.350Z,8.60
2024-03-10T08:50:39.038Z,8.70
2024-03-10T08:53:05.931Z,8.80
2024-03-10T08:55:33.380Z,8.80
2024-03-10T08:58:00.817Z,8.90
2024-03-10T09:00:27.696Z,9.00
2024-03-10T09:02:54.385Z,9.00
2024-03-10T09:05:21.173Z,9.10
2024-03-10T09:07:48.686Z,9.20
2024-03-10T09:10:15.457Z,9.30
2024-03-10T09:12:43.977Z,9.30
2024-03-10T09:15:14.563Z,9.30
2024-03-10T09:17:43.020Z,9.40
2024-03-10T09:20:13.206Z,9.50
2024-03-10T09:22:42.022Z,9.60
2024-03-10T09:25:23.061Z,9.70
2024-03-10T09:27:53.160Z,9.60
2024-03-10T09:30:23.193Z,9.70
2024-03-10T09:32:56.048Z,9.80
2024-03-10T09:35:29.476Z,9.80
2024-03-10T09:38:01.884Z,8.50
2024-03-10T09:40:31.143Z,8.50
2024-03-10T09:43:13.165Z,10.30
2024-03-10T09:45:47.802Z,10.60
2024-03-10T09:48:16.008Z,10.60
2024-03-10T09:50:50.855Z,10.70
2024-03-10T09:53:18.625Z,10.60
2024-03-10T09:55:49.078Z,10.70
2024-03-10T09:58:26.765Z,10.80
2024-03-10T10:01:04.656Z,10.80
2024-03-10T10:03:31.390Z,10.80
2024-03-10T10:06:03.935Z,10.80
2024-03-10T10:08:31.073Z,10.70
2024-03-10T10:11:00.830Z,10.60
2024-03-10T10:13:29.559Z,10.70
2024-03-10T10:15:57.573Z,10.80
2024-03-10T10:18:28.030Z,10.80
2024-03-10T10:20:56.587Z,10.90
2024-03-10T10:23:25.702Z,11.00
2024-03-10T10:25:54.247Z,11.00
2024-03-10T10:28:21.686Z,11.10
2024-03-10T10:30:50.052Z,11.00
2024-03-10T10:33:16.852Z,10.90
2024-03-10T10:35:44.003Z,9.60
2024-03-10T10:38:14.976Z,11.00
2024-03-10T10:40:46.300Z,11.10
2024-03-10T10:43:13.707Z,11.20
2024-03-10T10:45:40.534Z,11.30
2024-03-10T10:48:09.440Z,11.30
2024-03-10T10:50:36.426Z,11.40
2024-03-10T10:53:06.052Z,11.40
2024-03-10T10:55:34.145Z,10.80
2024-03-10T10:58:05.411Z,11.40
2024-03-10T11:00:33.212Z,11.60
2024-03-10T11:03:16.553Z,12.80
2024-03-10T11:05:46.414Z,11.50
2024-03-10T11:08:15.359Z,11.50
2024-03-10T11:10:51.347Z,11.50
2024-03-10T11:13:19.104Z,11.40
2024-03-10T11:15:46.123Z,11.50
2024-03-10T11:18:27.355Z,11.40
2024-03-10T11:20:57.176Z,11.30
2024-03-10T11:23:37.835Z,11.40
2024-03-10T11:26:10.232Z,11.40
2024-03-10T11:28:57.953Z,10.10
2024-03-10T11:31:24.649Z,11.60
2024-03-10T11:33:52.448Z,11.80
2024-03-10T11:36:21.942Z,11.90
2024-03-10T11:38:49.581Z,11.90
2024-03-10T11:41:16.807Z,12.00
2024-03-10T11:43:44.646Z,12.10
2024-03-10T11:46:27.514Z,12.10
2024-03-10T11:48:55.758Z,12.10
2024-03-10T11:51:29.678Z,12.10
2024-03-10T11:53:56.935Z,12.20
2024-03-10T11:56:24.080Z,12.20
2024-03-10T11:58:54.261Z,12.20
2024-03-10T12:01:22.285Z,13.10
2024-03-10T12:03:50.797Z,12.30
2024-03-10T12:06:18.233Z,12.20
2024-03-10T12:08:45.893Z,12.20
2024-03-10T12:11:13.928Z,12.30
2024-03-10T12:13:42.319Z,12.90
2024-03-10T12:16:09.855Z,12.30
2024-03-10T12:18:36.759Z,12.40
2024-03-10T12:21:05.514Z,12.30
2024-03-10T12:23:38.807Z,12.30
2024-03-10T12:26:10.871Z,12.40
2024-03-10T12:28:38.237Z,12.40
2024-03-10T12:31:25.928Z,12.50
2024-03-10T12:33:52.665Z,12.60
2024-03-10T12:36:21.519Z,12.70
2024-03-10T12:38:48.353Z,12.90
2024-03-10T12:41:15.511Z,12.90
2024-03-10T12:43:46.664Z,12.90
2024-03-10T12:46:19.279Z,12.80
2024-03-10T12:48:47.038Z,12.70
2024-03-10T12:51:13.782Z,12.70
2024-03-10T12:53:40.694Z,12.70
2024-03-10T12:56:14.202Z,12.70
2024-03-10T12:58:41.583Z,12.80
2024-03-10T13:01:08.659Z,12.80
2024-03-10T13:03:36.311Z,12.70
2024-03-10T13:06:04.213Z,12.60
2024-03-10T13:08:31.731Z,12.50
2024-03-10T13:10:59.778Z,12.60
2024-03-10T13:13:28.172Z,12.60
2024-03-10T13:15:55.845Z,12.60
2024-03-10T13:18:23.095Z,12.60
2024-03-10T13:20:50.247Z,12.50
2024-03-10T13:23:17.095Z,12.50
2024-03-10T13:25:43.969Z,12.50
2024-03-10T13:28:11.067Z,12.50
2024-03-10T13:30:39.431Z,12.50
2024-03-10T13:33:07.170Z,12.50
2024-03-10T13:35:34.901Z,12.50
2024-03-10T13:38:04.277Z,12.50
2024-03-10T13:40:31.990Z,12.50
2024-03-10T13:42:58.752Z,12.50
2024-03-10T13:45:35.469Z,12.50
2024-03-10T13:48:07.401Z,13.90
2024-03-10T13:50:34.929Z,12.60
2024-03-10T13:53:01.842Z,12.70
2024-03-10T13:55:28.835Z,12.70
2024-03-10T13:57:55.773Z,12.60
2024-03-10T14:00:25.770Z,12.50
2024-03-10T14:02:52.636Z,12.50
2024-03-10T14:05:20.590Z,12.40
2024-03-10T14:07:48.712Z,12.40
2024-03-10T14:10:18.525Z,12.40
2024-03-10T14:12:45.807Z,12.40
2024-03-10T14:15:15.659Z,12.40
2024-03-10T14:17:44.352Z,12.50
2024-03-10T14:20:16.446Z,12.50
2024-03-10T14:22:46.858Z,12.60
2024-03-10T14:25:14.189Z,12.60
2024-03-10T14:27:52.085Z,12.70
2024-03-10T14:30:22.294Z,12.80
2024-03-10T14:32:52.279Z,12.90
2024-03-10T14:35:22.658Z,13.00
2024-03-10T14:37:50.440Z,12.90
2024-03-10T14:40:22.242Z,13.00
2024-03-10T14:42:51.932Z,13.00
2024-03-10T14:45:19.898Z,12.90
2024-03-10T14:47:53.617Z,12.90
2024-03-10T14:50:21.742Z,12.80
2024-03-10T14:52:55.451Z,12.80
2024-03-10T14:55:22.539Z,12.70
2024-03-10T14:57:49.292Z,12.80
2024-03-10T15:00:37.004Z,12.80
2024-03-10T15:03:06.997Z,12.80
2024-03-10T15:05:35.499Z,12.80
2024-03-10T15:08:06.545Z,12.80
2024-03-10T15:10:34.781Z,12.90
2024-03-10T15:13:01.731Z,12.90
2024-03-10T15:15:31.607Z,12.90
2024-03-10T15:17:59.782Z,12.90
2024-03-10T15:20:26.590Z,12.90
2024-03-10T15:22:53.782Z,12.90
2024-03-10T15:25:20.726Z,13.00
2024-03-10T15:27:47.883Z,13.00
2024-03-10T15:30:21.460Z,14.40
2024-03-10T15:32:49.316Z,12.90
2024-03-10T15:35:17.743Z,11.60
2024-03-10T15:37:50.662Z,13.00
2024-03-10T15:40:20.243Z,13.00
2024-03-10T15:42:47.703Z,12.90
2024-03-10T15:45:17.475Z,13.00
2024-03-10T15:50:15.160Z,13.00
2024-03-10T15:52:44.819Z,12.90
2024-03-10T15:55:13.353Z,12.90
2024-03-10T15:57:42.391Z,12.90
2024-03-10T16:00:17.370Z,12.90
2024-03-10T16:02:47.299Z,12.90
2024-03-10T16:05:38.776Z,12.90
2024-03-10T16:08:07.153Z,12.90
2024-03-10T16:10:35.916Z,12.90
2024-03-10T16:13:06.958Z,12.90
2024-03-10T16:15:36.844Z,12.60
2024-03-10T16:18:07.202Z,12.50
2024-03-10T16:20:36.368Z,12.40
2024-03-10T16:23:03.991Z,12.30
2024-03-10T16:25:30.901Z,12.90
2024-03-10T16:27:57.623Z,12.00
2024-03-10T16:30:24.383Z,12.00
2024-03-10T16:32:51.382Z,11.70
2024-03-10T16:35:18.936Z,11.60
2024-03-10T16:37:48.777Z,11.50
2024-03-10T16:40:17.088Z,11.40
2024-03-10T16:42:44.228Z,11.30
2024-03-10T16:45:13.243Z,11.30
2024-03-10T16:47:48.156Z,11.30
2024-03-10T16:50:19.957Z,11.10
2024-03-10T16:52:46.835Z,11.00
2024-03-10T16:55:14.300Z,11.00
2024-03-10T16:57:40.964Z,10.90
2024-03-10T17:00:14.793Z,10.90
2024-03-10T17:02:45.875Z,10.90
2024-03-10T17:05:16.424Z,10.90
2024-03-10T17:07:43.651Z,10.90
2024-03-10T17:10:11.350Z,10.70
2024-03-10T17:12:38.998Z,10.90
2024-03-10T17:15:07.140Z,10.70
2024-03-10T17:17:34.634Z,10.70
2024-03-10T17:20:01.433Z,10.60
2024-03-10T17:22:28.149Z,10.50
2024-03-10T17:24:56.045Z,10.50
2024-03-10T17:27:22.791Z,10.50
2024-03-10T17:29:51.085Z,10.50
2024-03-10T17:32:18.718Z,10.50
2024-03-10T17:34:45.415Z,10.60
2024-03-10T17:37:13.254Z,10.60
2024-03-10T17:39:39.925Z,10.60
2024-03-10T17:42:06.708Z,10.50
2024-03-10T17:44:35.475Z,10.50
2024-03-10T17:47:02.268Z,10.40
2024-03-10T17:49:28.960Z,10.30
2024-03-10T17:51:56.479Z,10.20
2024-03-10T17:54:24.064Z,10.20
2024-03-10T17:56:51.790Z,9.70
2024-03-10T17:59:19.528Z,10.10
2024-03-10T18:01:46.191Z,10.10
2024-03-10T18:04:12.847Z,10.00
2024-03-10T18:06:39.632Z,10.00
2024-03-10T18:09:08.665Z,9.90
2024-03-10T18:11:41.470Z,9.90
2024-03-10T18:14:08.430Z,10.00
2024-03-10T18:16:35.111Z,10.00
2024-03-10T18:19:01.872Z,10.00
2024-03-10T18:21:28.997Z,10.00
2024-03-10T18:23:58.544Z,10.60
2024-03-10T18:26:25.579Z,10.00
2024-03-10T18:28:52.254Z,10.10
2024-03-10T18:31:20.835Z,10.50
2024-03-10T18:33:47.510Z,10.60
2024-03-10T18:36:14.283Z,10.60
2024-03-10T18:38:41.651Z,10.60
2024-03-10T18:41:08.457Z,10.70
2024-03-10T18:43:35.171Z,10.70
2024-03-10T18:46:01.876Z,10.60
2024-03-10T18:48:29.129Z,10.40
2024-03-10T18:51:02.189Z,10.20
2024-03-10T18:53:33.861Z,10.00
2024-03-10T18:56:02.762Z,10.00
2024-03-10T18:58:31.836Z,9.90
2024-03-10T19:00:59.225Z,9.80
2024-03-10T19:03:26.620Z,9.80
2024-03-10T19:05:54.065Z,9.80
2024-03-10T19:08:21.120Z,9.80
2024-03-10T19:10:52.194Z,9.70
2024-03-10T19:13:19.972Z,9.80
2024-03-10T19:15:47.009Z,9.70
2024-03-10T19:18:13.876Z,9.80
2024-03-10T19:20:41.704Z,9.80
2024-03-10T19:23:08.492Z,9.70
2024-03-10T19:25:35.406Z,9.70
2024-03-10T19:28:02.310Z,9.70
2024-03-10T19:30:29.074Z,10.40
2024-03-10T19:32:55.912Z,9.60
2024-03-10T19:35:23.501Z,9.60
2024-03-10T19:37:52.092Z,9.70
2024-03-10T19:40:23.690Z,9.80
2024-03-10T19:42:51.698Z,9.70
2024-03-10T19:45:20.846Z,9.60
2024-03-10T19:47:49.189Z,9.60
2024-03-10T19:50:19.300Z,9.60
2024-03-10T19:52:49.281Z,9.60
2024-03-10T19:55:16.490Z,9.50
2024-03-10T19:57:43.663Z,9.50
2024-03-10T20:00:18.365Z,8.10
2024-03-10T20:02:46.311Z,9.50
2024-03-10T20:05:16.852Z,9.50
2024-03-10T20:07:48.098Z,10.10
2024-03-10T20:10:17.560Z,9.50
2024-03-10T20:12:44.753Z,9.50
2024-03-10T20:15:11.572Z,9.50
2024-03-10T20:17:40.002Z,9.60
2024-03-10T20:20:22.839Z,9.50
2024-03-10T20:22:50.530Z,9.40
2024-03-10T20:25:19.654Z,9.50
2024-03-10T20:27:46.853Z,9.50
2024-03-10T20:30:15.424Z,9.60
2024-03-10T20:32:42.462Z,9.50
2024-03-10T20:35:10.228Z,9.60
2024-03-10T20:37:37.698Z,9.60
2024-03-10T20:40:06.871Z,9.50
2024-03-10T20:42:33.677Z,9.60
2024-03-10T20:45:00.379Z,9.60
2024-03-10T20:47:27.014Z,9.60
2024-03-10T20:49:54.165Z,9.60
2024-03-10T20:52:22.489Z,9.10
2024-03-10T20:54:51.807Z,9.60
2024-03-10T20:57:18.532Z,9.50
2024-03-10T20:59:45.273Z,9.60
2024-03-10T21:02:12.862Z,9.50
2024-03-10T21:04:40.117Z,9.60
2024-03-10T21:07:06.756Z,9.50
2024-03-10T21:09:33.488Z,9.50
2024-03-10T21:12:01.251Z,8.00
2024-03-10T21:14:28.333Z,9.50
2024-03-10T21:16:59.559Z,9.50
2024-03-10T21:19:27.526Z,9.50
2024-03-10T21:21:54.317Z,9.40
2024-03-10T21:24:20.993Z,9.50
2024-03-10T21:26:49.169Z,9.50
2024-03-10T21:29:16.723Z,9.40
2024-03-10T21:31:43.716Z,9.50
2024-03-10T21:34:10.371Z,9.50
2024-03-10T21:36:37.161Z,8.10
2024-03-10T21:39:04.319Z,9.50
2024-03-10T21:41:31.643Z,9.50
2024-03-10T21:43:58.608Z,9.50
2024-03-10T21:46:25.416Z,9.50
2024-03-10T21:48:52.952Z,9.50
2024-03-10T21:51:20.920Z,9.50
2024-03-10T21:53:51.142Z,9.50
2024-03-10T21:56:18.834Z,9.40
2024-03-10T21:58:45.565Z,9.50
2024-03-10T22:01:14.216Z,9.50
2024-03-10T22:03:40.984Z,9.80
2024-03-10T22:06:07.657Z,9.60
2024-03-10T22:08:34.397Z,9.60
2024-03-10T22:11:01.142Z,9.60
2024-03-10T22:13:29.072Z,9.60
2024-03-10T22:15:55.889Z,9.60
2024-03-10T22:18:22.937Z,9.50
2024-03-10T22:20:49.861Z,9.50
2024-03-10T22:23:17.188Z,9.50
2024-03-10T22:25:43.915Z,9.50
2024-03-10T22:28:10.588Z,9.50
2024-03-10T22:30:37.831Z,9.60
2024-03-10T22:33:05.184Z,9.50
2024-03-10T22:35:32.044Z,9.50
2024-03-10T22:38:02.542Z,9.70
2024-03-10T22:40:32.093Z,9.60
2024-03-10T22:43:03.111Z,9.50
2024-03-10T22:45:32.610Z,9.40
2024-03-10T22:48:01.383Z,9.50
2024-03-10T22:50:28.648Z,9.40
2024-03-10T22:52:55.931Z,9.40
2024-03-10T22:55:24.087Z,9.40
2024-03-10T22:57:51.145Z,9.40
2024-03-10T23:00:24.255Z,9.40
2024-03-10T23:03:02.183Z,9.40
2024-03-10T23:05:32.647Z,9.40
2024-03-10T23:08:10.104Z,9.40
2024-03-10T23:10:42.587Z,8.50
2024-03-10T23:13:10.743Z,9.30
2024-03-10T23:15:37.717Z,9.40
2024-03-10T23:18:04.725Z,9.40
2024-03-10T23:20:31.883Z,9.40
2024-03-10T23:22:59.091Z,9.30
2024-03-10T23:25:26.879Z,9.20
2024-03-10T23:27:54.852Z,9.20
2024-03-10T23:30:22.215Z,9.20
2024-03-10T23:32:50.514Z,9.20
2024-03-10T23:35:18.271Z,9.10
2024-03-10T23:37:45.200Z,10.10
2024-03-10T23:40:13.177Z,9.00
2024-03-10T23:42:43.912Z,9.00
2024-03-10T23:45:14.296Z,9.00
2024-03-10T23:47:42.914Z,9.00
2024-03-10T23:50:12.194Z,8.90
2024-03-10T23:52:40.436Z,8.80
2024-03-10T23:55:08.088Z,8.80
2024-03-10T23:57:35.264Z,8.70
